Hikarimaru No.17 — JD2956 — position and weather

sailwx.info

Track history (hours):
 
Tides and Currents Weather Stations Pressure Air Temp Water Temp Dewpoint Dewpoint Depression Visibility Wind Speed Wind Dir Waves Ship Positions

Hikarimaru No.17

Last reported at 2016-Sep-23 17:30 UTC. Time now 2016-Sep-25 20:51 UTC.
Position N 34°23' E 135°11'.

Length 105 m; draft 6.5 m.

Type: Tanker. MMSI: 431000984.

Date/timePositionNaut miles runAvg speedWind from/ knotsBaromVisibWave heightAir tempDewpointWater temp
2016-Sep-23 17:30N 34°23' E 135°11'0 0.0
2016-Sep-23 16:30N 34°22' E 135°11'0 0.0
2016-Sep-23 15:12N 34°22' E 135°11'0 0.0
2016-Sep-23 13:30N 34°22' E 135°11'0 0.0
2016-Sep-23 09:24N 34°22' E 135°11'12 4.3
2016-Sep-23 06:33N 34°12' E 135°04'3 1.3
2016-Sep-23 04:34N 34°09' E 135°03'3 3.1
2016-Sep-23 03:33N 34°11' E 135°00'9 2.2
2016-Sep-22 23:20N 34°09' E 135°11'2 0.6
2016-Sep-22 20:32N 34°09' E 135°09'0 0.0
2016-Sep-22 12:32N 34°09' E 135°09'27 3.3
2016-Sep-22 04:33N 34°33' E 135°25'0 0.0
2016-Sep-22 03:33N 34°33' E 135°25'0 0.0
2016-Sep-22 00:32N 34°33' E 135°25'4 3.7
2016-Sep-21 23:30N 34°32' E 135°20'0 0.0
2016-Sep-21 22:30N 34°32' E 135°20'0 0.0
2016-Sep-21 19:12N 34°32' E 135°20'0 0.0
2016-Sep-21 09:06N 34°32' E 135°20'0 0.0
2016-Sep-21 08:18N 34°32' E 135°20'12 4.5
2016-Sep-21 05:33N 34°35' E 135°06'  
2016-Sep-16 17:31N 34°23' E 135°12'0 0.0
2016-Sep-16 12:31N 34°23' E 135°12'0 0.0
2016-Sep-16 03:25N 34°23' E 135°12'0 0.0
2016-Sep-16 02:07N 34°23' E 135°12'0 0.0
2016-Sep-15 21:31N 34°23' E 135°12'0 0.0
2016-Sep-15 20:31N 34°23' E 135°12'17 1.1
2016-Sep-15 04:33N 34°09' E 134°60'20 1.9
2016-Sep-14 17:33N 34°29' E 135°01'8 7.9
2016-Sep-14 16:33N 34°37' E 135°01'  
Track history (hours):
 
Tides and Currents Weather Stations Pressure Air Temp Water Temp Dewpoint Dewpoint Depression Visibility Wind Speed Wind Dir Waves Ship Positions

Hikarimaru No.17

Last reported at 2016-Sep-23 17:30 UTC. Time now 2016-Sep-25 20:51 UTC.
Position N 34°23' E 135°11'.

Length 105 m; draft 6.5 m.

Type: Tanker. MMSI: 431000984.

Date/timePositionNaut miles runAvg speedWind from/ knotsBaromVisibWave heightAir tempDewpointWater temp
2016-Sep-23 17:30N 34°23' E 135°11'0 0.0
2016-Sep-23 16:30N 34°22' E 135°11'0 0.0
2016-Sep-23 15:12N 34°22' E 135°11'0 0.0
2016-Sep-23 13:30N 34°22' E 135°11'0 0.0
2016-Sep-23 09:24N 34°22' E 135°11'12 4.3
2016-Sep-23 06:33N 34°12' E 135°04'3 1.3
2016-Sep-23 04:34N 34°09' E 135°03'3 3.1
2016-Sep-23 03:33N 34°11' E 135°00'9 2.2
2016-Sep-22 23:20N 34°09' E 135°11'2 0.6
2016-Sep-22 20:32N 34°09' E 135°09'0 0.0
2016-Sep-22 12:32N 34°09' E 135°09'27 3.3
2016-Sep-22 04:33N 34°33' E 135°25'0 0.0
2016-Sep-22 03:33N 34°33' E 135°25'0 0.0
2016-Sep-22 00:32N 34°33' E 135°25'4 3.7
2016-Sep-21 23:30N 34°32' E 135°20'0 0.0
2016-Sep-21 22:30N 34°32' E 135°20'0 0.0
2016-Sep-21 19:12N 34°32' E 135°20'0 0.0
2016-Sep-21 09:06N 34°32' E 135°20'0 0.0
2016-Sep-21 08:18N 34°32' E 135°20'12 4.5
2016-Sep-21 05:33N 34°35' E 135°06'  
2016-Sep-16 17:31N 34°23' E 135°12'0 0.0
2016-Sep-16 12:31N 34°23' E 135°12'0 0.0
2016-Sep-16 03:25N 34°23' E 135°12'0 0.0
2016-Sep-16 02:07N 34°23' E 135°12'0 0.0
2016-Sep-15 21:31N 34°23' E 135°12'0 0.0
2016-Sep-15 20:31N 34°23' E 135°12'17 1.1
2016-Sep-15 04:33N 34°09' E 134°60'20 1.9
2016-Sep-14 17:33N 34°29' E 135°01'8 7.9
2016-Sep-14 16:33N 34°37' E 135°01'  

Dump ship's entire track history